sensor_id;sensor_type;location;lat;lon;timestamp;temperature;humidity
26035;DHT22;13809;48.632;11.576;2023-06-22T00:03:59;24.60;38.10
26035;DHT22;13809;48.632;11.576;2023-06-22T00:09:04;24.50;38.10
26035;DHT22;13809;48.632;11.576;2023-06-22T00:14:08;24.50;38.50
26035;DHT22;13809;48.632;11.576;2023-06-22T00:19:11;24.50;38.00
26035;DHT22;13809;48.632;11.576;2023-06-22T00:24:16;24.40;38.00
26035;DHT22;13809;48.632;11.576;2023-06-22T00:29:19;24.30;38.50
26035;DHT22;13809;48.632;11.576;2023-06-22T00:34:25;24.30;38.40
26035;DHT22;13809;48.632;11.576;2023-06-22T00:39:30;24.20;38.60
26035;DHT22;13809;48.632;11.576;2023-06-22T00:44:35;24.10;39.20
26035;DHT22;13809;48.632;11.576;2023-06-22T00:49:38;24.10;38.90
26035;DHT22;13809;48.632;11.576;2023-06-22T00:54:43;24.10;38.80
26035;DHT22;13809;48.632;11.576;2023-06-22T00:59:48;24.00;39.30
26035;DHT22;13809;48.632;11.576;2023-06-22T01:04:51;24.00;39.30
26035;DHT22;13809;48.632;11.576;2023-06-22T01:10:02;23.90;39.20
26035;DHT22;13809;48.632;11.576;2023-06-22T01:15:13;23.90;39.90
26035;DHT22;13809;48.632;11.576;2023-06-22T01:20:19;23.80;39.90
26035;DHT22;13809;48.632;11.576;2023-06-22T01:25:33;23.80;39.80
26035;DHT22;13809;48.632;11.576;2023-06-22T01:30:41;23.80;39.80
26035;DHT22;13809;48.632;11.576;2023-06-22T01:35:44;23.70;39.80
26035;DHT22;13809;48.632;11.576;2023-06-22T01:40:48;23.70;39.80
26035;DHT22;13809;48.632;11.576;2023-06-22T01:45:54;23.60;39.70
26035;DHT22;13809;48.632;11.576;2023-06-22T01:50:57;23.60;40.00
26035;DHT22;13809;48.632;11.576;2023-06-22T01:56:00;23.60;39.70
26035;DHT22;13809;48.632;11.576;2023-06-22T02:01:10;23.60;39.70
26035;DHT22;13809;48.632;11.576;2023-06-22T02:06:17;23.60;40.60
26035;DHT22;13809;48.632;11.576;2023-06-22T02:11:26;23.60;40.20
26035;DHT22;13809;48.632;11.576;2023-06-22T02:16:32;23.60;39.70
26035;DHT22;13809;48.632;11.576;2023-06-22T02:21:36;23.60;39.70
26035;DHT22;13809;48.632;11.576;2023-06-22T02:26:39;23.50;39.60
26035;DHT22;13809;48.632;11.576;2023-06-22T02:31:45;23.50;39.60
26035;DHT22;13809;48.632;11.576;2023-06-22T02:36:49;23.50;39.80
26035;DHT22;13809;48.632;11.576;2023-06-22T02:41:54;23.40;39.50
26035;DHT22;13809;48.632;11.576;2023-06-22T02:46:59;23.30;39.70
26035;DHT22;13809;48.632;11.576;2023-06-22T02:52:02;23.40;39.90
26035;DHT22;13809;48.632;11.576;2023-06-22T02:57:05;23.30;39.50
26035;DHT22;13809;48.632;11.576;2023-06-22T03:02:10;23.30;39.70
26035;DHT22;13809;48.632;11.576;2023-06-22T03:07:13;23.30;40.30
26035;DHT22;13809;48.632;11.576;2023-06-22T03:12:16;23.30;39.90
26035;DHT22;13809;48.632;11.576;2023-06-22T03:17:21;23.30;39.90
26035;DHT22;13809;48.632;11.576;2023-06-22T03:22:24;23.20;40.50
26035;DHT22;13809;48.632;11.576;2023-06-22T03:27:27;23.20;40.40
26035;DHT22;13809;48.632;11.576;2023-06-22T03:32:32;23.20;40.50
26035;DHT22;13809;48.632;11.576;2023-06-22T03:37:35;23.10;40.70
26035;DHT22;13809;48.632;11.576;2023-06-22T03:42:38;23.10;40.40
26035;DHT22;13809;48.632;11.576;2023-06-22T03:47:43;23.10;40.40
26035;DHT22;13809;48.632;11.576;2023-06-22T03:52:46;23.10;41.00
26035;DHT22;13809;48.632;11.576;2023-06-22T03:57:50;23.10;40.80
26035;DHT22;13809;48.632;11.576;2023-06-22T04:02:56;23.10;40.70
26035;DHT22;13809;48.632;11.576;2023-06-22T04:07:59;23.00;40.90
26035;DHT22;13809;48.632;11.576;2023-06-22T04:13:02;23.00;40.80
26035;DHT22;13809;48.632;11.576;2023-06-22T04:18:07;23.00;41.00
26035;DHT22;13809;48.632;11.576;2023-06-22T04:23:10;23.00;41.50
26035;DHT22;13809;48.632;11.576;2023-06-22T04:28:13;23.00;40.90
26035;DHT22;13809;48.632;11.576;2023-06-22T04:33:18;23.00;41.00
26035;DHT22;13809;48.632;11.576;2023-06-22T04:38:21;22.90;41.40
26035;DHT22;13809;48.632;11.576;2023-06-22T04:43:24;22.90;41.20
26035;DHT22;13809;48.632;11.576;2023-06-22T04:48:33;22.90;41.40
26035;DHT22;13809;48.632;11.576;2023-06-22T04:53:37;22.90;42.40
26035;DHT22;13809;48.632;11.576;2023-06-22T04:58:43;22.90;42.40
26035;DHT22;13809;48.632;11.576;2023-06-22T05:03:47;23.00;42.60
26035;DHT22;13809;48.632;11.576;2023-06-22T05:08:52;23.00;43.60
26035;DHT22;13809;48.632;11.576;2023-06-22T05:13:59;23.00;43.40
26035;DHT22;13809;48.632;11.576;2023-06-22T05:19:03;23.10;43.30
26035;DHT22;13809;48.632;11.576;2023-06-22T05:24:07;23.10;44.10
26035;DHT22;13809;48.632;11.576;2023-06-22T05:29:10;23.10;43.30
26035;DHT22;13809;48.632;11.576;2023-06-22T05:34:15;23.20;43.50
26035;DHT22;13809;48.632;11.576;2023-06-22T05:39:18;23.20;44.30
26035;DHT22;13809;48.632;11.576;2023-06-22T05:44:21;23.20;43.90
26035;DHT22;13809;48.632;11.576;2023-06-22T05:49:26;23.20;43.90
26035;DHT22;13809;48.632;11.576;2023-06-22T05:54:31;23.30;44.80
26035;DHT22;13809;48.632;11.576;2023-06-22T05:59:35;23.30;44.40
26035;DHT22;13809;48.632;11.576;2023-06-22T06:04:39;23.40;44.60
26035;DHT22;13809;48.632;11.576;2023-06-22T06:09:42;23.50;45.40
26035;DHT22;13809;48.632;11.576;2023-06-22T06:14:45;23.60;45.00
26035;DHT22;13809;48.632;11.576;2023-06-22T06:19:51;23.70;45.10
26035;DHT22;13809;48.632;11.576;2023-06-22T06:24:54;23.80;45.70
26035;DHT22;13809;48.632;11.576;2023-06-22T06:29:57;23.90;45.40
26035;DHT22;13809;48.632;11.576;2023-06-22T06:35:02;24.10;45.50
26035;DHT22;13809;48.632;11.576;2023-06-22T06:40:06;24.30;45.60
26035;DHT22;13809;48.632;11.576;2023-06-22T06:45:11;24.50;44.60
26035;DHT22;13809;48.632;11.576;2023-06-22T06:50:17;24.70;44.40
26035;DHT22;13809;48.632;11.576;2023-06-22T06:55:20;24.90;44.00
26035;DHT22;13809;48.632;11.576;2023-06-22T07:00:25;25.20;43.90
26035;DHT22;13809;48.632;11.576;2023-06-22T07:05:31;25.40;43.30
26035;DHT22;13809;48.632;11.576;2023-06-22T07:10:34;25.70;42.30
26035;DHT22;13809;48.632;11.576;2023-06-22T07:15:38;25.90;42.10
26035;DHT22;13809;48.632;11.576;2023-06-22T07:20:42;26.20;41.70
26035;DHT22;13809;48.632;11.576;2023-06-22T07:25:45;26.50;41.50
26035;DHT22;13809;48.632;11.576;2023-06-22T07:30:48;26.80;41.10
26035;DHT22;13809;48.632;11.576;2023-06-22T07:35:54;27.00;40.60
26035;DHT22;13809;48.632;11.576;2023-06-22T07:40:57;27.30;39.50
26035;DHT22;13809;48.632;11.576;2023-06-22T07:46:01;27.50;39.40
26035;DHT22;13809;48.632;11.576;2023-06-22T07:51:05;27.80;38.80
26035;DHT22;13809;48.632;11.576;2023-06-22T07:56:10;28.00;37.30
26035;DHT22;13809;48.632;11.576;2023-06-22T08:01:14;28.20;36.60
26035;DHT22;13809;48.632;11.576;2023-06-22T08:06:20;28.40;36.60
26035;DHT22;13809;48.632;11.576;2023-06-22T08:11:23;28.60;35.80
26035;DHT22;13809;48.632;11.576;2023-06-22T08:16:27;28.70;36.20
26035;DHT22;13809;48.632;11.576;2023-06-22T08:21:31;28.90;36.20
26035;DHT22;13809;48.632;11.576;2023-06-22T08:26:35;29.10;35.10
26035;DHT22;13809;48.632;11.576;2023-06-22T08:31:39;29.30;35.60
26035;DHT22;13809;48.632;11.576;2023-06-22T08:36:44;29.50;35.30
26035;DHT22;13809;48.632;11.576;2023-06-22T08:41:53;29.70;34.10
26035;DHT22;13809;48.632;11.576;2023-06-22T08:46:57;30.00;34.50
26035;DHT22;13809;48.632;11.576;2023-06-22T08:52:02;30.20;33.90
26035;DHT22;13809;48.632;11.576;2023-06-22T08:57:05;30.40;32.80
26035;DHT22;13809;48.632;11.576;2023-06-22T09:02:08;30.50;33.10
26035;DHT22;13809;48.632;11.576;2023-06-22T09:07:14;30.70;33.00
26035;DHT22;13809;48.632;11.576;2023-06-22T09:12:24;30.90;31.90
26035;DHT22;13809;48.632;11.576;2023-06-22T09:17:29;31.10;32.30
26035;DHT22;13809;48.632;11.576;2023-06-22T09:22:34;31.30;32.40
26035;DHT22;13809;48.632;11.576;2023-06-22T09:27:37;31.50;31.30
26035;DHT22;13809;48.632;11.576;2023-06-22T09:32:40;31.70;31.30
26035;DHT22;13809;48.632;11.576;2023-06-22T09:37:45;31.80;30.60
26035;DHT22;13809;48.632;11.576;2023-06-22T09:42:49;31.90;29.60
26035;DHT22;13809;48.632;11.576;2023-06-22T09:47:52;32.10;30.10
26035;DHT22;13809;48.632;11.576;2023-06-22T09:52:56;32.20;30.10
26035;DHT22;13809;48.632;11.576;2023-06-22T09:58:00;32.40;29.30
26035;DHT22;13809;48.632;11.576;2023-06-22T10:03:03;32.50;29.50
26035;DHT22;13809;48.632;11.576;2023-06-22T10:08:08;32.70;29.00
26035;DHT22;13809;48.632;11.576;2023-06-22T10:13:12;32.90;27.70
26035;DHT22;13809;48.632;11.576;2023-06-22T10:18:15;33.00;28.10
26035;DHT22;13809;48.632;11.576;2023-06-22T10:23:20;33.10;27.90
26035;DHT22;13809;48.632;11.576;2023-06-22T10:28:23;33.10;26.90
26035;DHT22;13809;48.632;11.576;2023-06-22T10:33:26;33.20;27.60
26035;DHT22;13809;48.632;11.576;2023-06-22T10:38:31;33.40;26.90
26035;DHT22;13809;48.632;11.576;2023-06-22T10:43:34;33.40;26.60
26035;DHT22;13809;48.632;11.576;2023-06-22T10:48:37;33.50;26.80
26035;DHT22;13809;48.632;11.576;2023-06-22T10:53:42;33.60;27.00
26035;DHT22;13809;48.632;11.576;2023-06-22T10:58:45;33.70;25.80
26035;DHT22;13809;48.632;11.576;2023-06-22T11:03:49;33.90;26.20
26035;DHT22;13809;48.632;11.576;2023-06-22T11:08:53;34.00;26.50
26035;DHT22;13809;48.632;11.576;2023-06-22T11:14:07;34.20;25.40
26035;DHT22;13809;48.632;11.576;2023-06-22T11:19:10;34.30;25.60
26035;DHT22;13809;48.632;11.576;2023-06-22T11:24:16;34.40;25.10
26035;DHT22;13809;48.632;11.576;2023-06-22T11:29:20;34.40;23.60
26035;DHT22;13809;48.632;11.576;2023-06-22T11:34:37;34.40;24.40
26035;DHT22;13809;48.632;11.576;2023-06-22T11:39:43;34.40;24.80
26035;DHT22;13809;48.632;11.576;2023-06-22T11:44:54;34.50;23.90
26035;DHT22;13809;48.632;11.576;2023-06-22T11:49:59;34.60;24.80
26035;DHT22;13809;48.632;11.576;2023-06-22T11:55:05;34.70;24.20
26035;DHT22;13809;48.632;11.576;2023-06-22T12:00:09;34.80;23.60
26035;DHT22;13809;48.632;11.576;2023-06-22T12:05:20;35.00;24.00
26035;DHT22;13809;48.632;11.576;2023-06-22T12:10:26;35.10;23.90
26035;DHT22;13809;48.632;11.576;2023-06-22T12:15:31;35.20;23.70
26035;DHT22;13809;48.632;11.576;2023-06-22T12:20:34;35.40;23.90
26035;DHT22;13809;48.632;11.576;2023-06-22T12:25:38;35.60;23.70
26035;DHT22;13809;48.632;11.576;2023-06-22T12:30:41;35.70;22.90
26035;DHT22;13809;48.632;11.576;2023-06-22T12:35:46;35.70;23.10
26035;DHT22;13809;48.632;11.576;2023-06-22T12:40:52;35.90;22.50
26035;DHT22;13809;48.632;11.576;2023-06-22T12:45:55;35.90;22.50
26035;DHT22;13809;48.632;11.576;2023-06-22T12:50:59;36.00;22.50
26035;DHT22;13809;48.632;11.576;2023-06-22T12:56:03;36.00;22.40
26035;DHT22;13809;48.632;11.576;2023-06-22T13:01:07;36.10;21.90
26035;DHT22;13809;48.632;11.576;2023-06-22T13:06:10;36.10;22.10
26035;DHT22;13809;48.632;11.576;2023-06-22T13:11:15;36.10;22.10
26035;DHT22;13809;48.632;11.576;2023-06-22T13:16:18;36.10;21.40
26035;DHT22;13809;48.632;11.576;2023-06-22T13:21:21;36.20;21.70
26035;DHT22;13809;48.632;11.576;2023-06-22T13:26:25;36.20;21.40
26035;DHT22;13809;48.632;11.576;2023-06-22T13:31:30;36.20;20.90
26035;DHT22;13809;48.632;11.576;2023-06-22T13:36:33;36.20;21.10
26035;DHT22;13809;48.632;11.576;2023-06-22T13:41:38;36.20;21.20
26035;DHT22;13809;48.632;11.576;2023-06-22T13:46:41;36.30;20.50
26035;DHT22;13809;48.632;11.576;2023-06-22T13:51:44;36.30;20.90
26035;DHT22;13809;48.632;11.576;2023-06-22T13:56:51;36.40;20.80
26035;DHT22;13809;48.632;11.576;2023-06-22T14:01:54;36.50;20.60
26035;DHT22;13809;48.632;11.576;2023-06-22T14:06:57;36.60;20.80
26035;DHT22;13809;48.632;11.576;2023-06-22T14:12:05;36.60;20.40
26035;DHT22;13809;48.632;11.576;2023-06-22T14:17:08;36.60;19.60
26035;DHT22;13809;48.632;11.576;2023-06-22T14:22:11;36.70;20.20
26035;DHT22;13809;48.632;11.576;2023-06-22T14:27:16;36.70;20.10
26035;DHT22;13809;48.632;11.576;2023-06-22T14:32:19;36.80;19.70
26035;DHT22;13809;48.632;11.576;2023-06-22T14:37:23;36.80;19.90
26035;DHT22;13809;48.632;11.576;2023-06-22T14:42:27;36.90;19.40
26035;DHT22;13809;48.632;11.576;2023-06-22T14:47:31;36.90;19.40
26035;DHT22;13809;48.632;11.576;2023-06-22T14:52:35;37.00;19.50
26035;DHT22;13809;48.632;11.576;2023-06-22T14:57:39;37.10;19.40
26035;DHT22;13809;48.632;11.576;2023-06-22T15:02:42;37.20;19.00
26035;DHT22;13809;48.632;11.576;2023-06-22T15:07:46;37.20;19.20
26035;DHT22;13809;48.632;11.576;2023-06-22T15:12:50;37.20;19.20
26035;DHT22;13809;48.632;11.576;2023-06-22T15:17:53;37.20;18.60
26035;DHT22;13809;48.632;11.576;2023-06-22T15:22:57;37.30;18.60
26035;DHT22;13809;48.632;11.576;2023-06-22T15:28:02;37.30;18.80
26035;DHT22;13809;48.632;11.576;2023-06-22T15:33:05;37.20;18.50
26035;DHT22;13809;48.632;11.576;2023-06-22T15:38:08;37.20;18.60
26035;DHT22;13809;48.632;11.576;2023-06-22T15:43:13;37.30;18.70
26035;DHT22;13809;48.632;11.576;2023-06-22T15:48:16;37.20;18.10
26035;DHT22;13809;48.632;11.576;2023-06-22T15:53:20;37.30;18.30
26035;DHT22;13809;48.632;11.576;2023-06-22T15:58:24;37.30;18.60
26035;DHT22;13809;48.632;11.576;2023-06-22T16:03:28;37.30;18.30
26035;DHT22;13809;48.632;11.576;2023-06-22T16:08:31;37.30;18.40
26035;DHT22;13809;48.632;11.576;2023-06-22T16:13:37;37.30;18.50
26035;DHT22;13809;48.632;11.576;2023-06-22T16:18:40;37.30;17.90
26035;DHT22;13809;48.632;11.576;2023-06-22T16:23:44;37.40;18.30
26035;DHT22;13809;48.632;11.576;2023-06-22T16:28:48;37.40;18.00
26035;DHT22;13809;48.632;11.576;2023-06-22T16:33:51;37.40;17.80
26035;DHT22;13809;48.632;11.576;2023-06-22T16:38:55;37.40;18.40
26035;DHT22;13809;48.632;11.576;2023-06-22T16:43:59;37.30;19.00
26035;DHT22;13809;48.632;11.576;2023-06-22T16:49:06;37.40;18.00
26035;DHT22;13809;48.632;11.576;2023-06-22T16:54:10;37.30;18.40
26035;DHT22;13809;48.632;11.576;2023-06-22T16:59:15;37.30;18.60
26035;DHT22;13809;48.632;11.576;2023-06-22T17:04:21;37.30;18.30
26035;DHT22;13809;48.632;11.576;2023-06-22T17:09:26;37.30;18.30
26035;DHT22;13809;48.632;11.576;2023-06-22T17:14:31;37.20;18.20
26035;DHT22;13809;48.632;11.576;2023-06-22T17:19:34;37.10;18.70
26035;DHT22;13809;48.632;11.576;2023-06-22T17:24:40;37.00;18.20
26035;DHT22;13809;48.632;11.576;2023-06-22T17:29:44;36.80;18.60
26035;DHT22;13809;48.632;11.576;2023-06-22T17:34:53;36.70;18.70
26035;DHT22;13809;48.632;11.576;2023-06-22T17:39:57;36.60;18.80
26035;DHT22;13809;48.632;11.576;2023-06-22T17:45:02;36.50;18.80
26035;DHT22;13809;48.632;11.576;2023-06-22T17:50:06;36.30;19.10
26035;DHT22;13809;48.632;11.576;2023-06-22T17:55:10;36.00;20.00
26035;DHT22;13809;48.632;11.576;2023-06-22T18:00:15;35.70;20.30
26035;DHT22;13809;48.632;11.576;2023-06-22T18:05:28;35.40;21.20
26035;DHT22;13809;48.632;11.576;2023-06-22T18:10:33;35.00;22.00
26035;DHT22;13809;48.632;11.576;2023-06-22T18:15:39;34.50;21.90
26035;DHT22;13809;48.632;11.576;2023-06-22T18:20:43;33.90;23.10
26035;DHT22;13809;48.632;11.576;2023-06-22T18:25:47;33.40;23.40
26035;DHT22;13809;48.632;11.576;2023-06-22T18:30:53;32.90;24.50
26035;DHT22;13809;48.632;11.576;2023-06-22T18:35:57;32.50;26.30
26035;DHT22;13809;48.632;11.576;2023-06-22T18:41:02;32.40;25.60
26035;DHT22;13809;48.632;11.576;2023-06-22T18:46:30;32.30;25.80
26035;DHT22;13809;48.632;11.576;2023-06-22T18:51:50;32.30;26.90
26035;DHT22;13809;48.632;11.576;2023-06-22T18:56:54;32.20;27.80
26035;DHT22;13809;48.632;11.576;2023-06-22T19:02:01;31.80;27.20
26035;DHT22;13809;48.632;11.576;2023-06-22T19:07:04;31.40;28.20
26035;DHT22;13809;48.632;11.576;2023-06-22T19:12:20;31.10;27.50
26035;DHT22;13809;48.632;11.576;2023-06-22T19:17:25;30.80;29.20
26035;DHT22;13809;48.632;11.576;2023-06-22T19:22:46;30.80;28.80
26035;DHT22;13809;48.632;11.576;2023-06-22T19:27:51;30.40;28.70
26035;DHT22;13809;48.632;11.576;2023-06-22T19:32:58;30.00;28.30
26035;DHT22;13809;48.632;11.576;2023-06-22T19:38:02;29.60;28.50
26035;DHT22;13809;48.632;11.576;2023-06-22T19:43:06;29.50;28.40
26035;DHT22;13809;48.632;11.576;2023-06-22T19:48:11;29.50;28.90
26035;DHT22;13809;48.632;11.576;2023-06-22T19:53:15;29.50;29.10
26035;DHT22;13809;48.632;11.576;2023-06-22T19:58:19;29.30;28.70
26035;DHT22;13809;48.632;11.576;2023-06-22T20:03:28;29.10;29.20
26035;DHT22;13809;48.632;11.576;2023-06-22T20:08:42;28.80;30.40
26035;DHT22;13809;48.632;11.576;2023-06-22T20:13:46;28.50;30.50
26035;DHT22;13809;48.632;11.576;2023-06-22T20:19:05;28.30;30.40
26035;DHT22;13809;48.632;11.576;2023-06-22T20:24:10;28.10;30.30
26035;DHT22;13809;48.632;11.576;2023-06-22T20:29:23;27.80;30.60
26035;DHT22;13809;48.632;11.576;2023-06-22T20:34:33;27.20;33.60
26035;DHT22;13809;48.632;11.576;2023-06-22T20:39:36;26.30;34.10
26035;DHT22;13809;48.632;11.576;2023-06-22T20:44:40;25.80;33.60
26035;DHT22;13809;48.632;11.576;2023-06-22T20:49:44;25.40;34.10
26035;DHT22;13809;48.632;11.576;2023-06-22T20:54:47;25.00;35.40
26035;DHT22;13809;48.632;11.576;2023-06-22T20:59:51;24.80;34.60
26035;DHT22;13809;48.632;11.576;2023-06-22T21:04:55;24.70;35.20
26035;DHT22;13809;48.632;11.576;2023-06-22T21:09:59;24.60;36.10
26035;DHT22;13809;48.632;11.576;2023-06-22T21:15:02;24.60;35.30
26035;DHT22;13809;48.632;11.576;2023-06-22T21:20:09;24.70;35.30
26035;DHT22;13809;48.632;11.576;2023-06-22T21:25:14;24.70;36.50
26035;DHT22;13809;48.632;11.576;2023-06-22T21:30:18;24.60;36.00
26035;DHT22;13809;48.632;11.576;2023-06-22T21:35:22;24.40;35.90
26035;DHT22;13809;48.632;11.576;2023-06-22T21:40:26;24.30;37.40
26035;DHT22;13809;48.632;11.576;2023-06-22T21:45:29;24.20;36.60
26035;DHT22;13809;48.632;11.576;2023-06-22T21:50:34;24.10;36.90
26035;DHT22;13809;48.632;11.576;2023-06-22T21:55:37;24.10;38.10
26035;DHT22;13809;48.632;11.576;2023-06-22T22:00:41;24.10;37.60
26035;DHT22;13809;48.632;11.576;2023-06-22T22:05:46;24.30;37.50
26035;DHT22;13809;48.632;11.576;2023-06-22T22:10:49;24.40;38.40
26035;DHT22;13809;48.632;11.576;2023-06-22T22:15:52;24.50;37.50
26035;DHT22;13809;48.632;11.576;2023-06-22T22:20:57;24.60;37.30
26035;DHT22;13809;48.632;11.576;2023-06-22T22:26:00;24.70;38.20
26035;DHT22;13809;48.632;11.576;2023-06-22T22:31:03;24.70;37.20
26035;DHT22;13809;48.632;11.576;2023-06-22T22:36:08;24.60;37.20
26035;DHT22;13809;48.632;11.576;2023-06-22T22:41:12;24.50;38.30
26035;DHT22;13809;48.632;11.576;2023-06-22T22:46:15;24.40;37.60
26035;DHT22;13809;48.632;11.576;2023-06-22T22:51:20;24.30;37.90
26035;DHT22;13809;48.632;11.576;2023-06-22T22:56:24;24.20;38.70
26035;DHT22;13809;48.632;11.576;2023-06-22T23:01:28;24.20;38.10
26035;DHT22;13809;48.632;11.576;2023-06-22T23:06:33;24.30;38.60
26035;DHT22;13809;48.632;11.576;2023-06-22T23:11:38;24.40;39.40
26035;DHT22;13809;48.632;11.576;2023-06-22T23:16:42;24.40;38.30
26035;DHT22;13809;48.632;11.576;2023-06-22T23:21:47;24.30;38.40
26035;DHT22;13809;48.632;11.576;2023-06-22T23:26:50;24.20;39.60
26035;DHT22;13809;48.632;11.576;2023-06-22T23:31:54;24.10;39.00
26035;DHT22;13809;48.632;11.576;2023-06-22T23:36:59;23.90;39.40
26035;DHT22;13809;48.632;11.576;2023-06-22T23:42:02;23.80;39.80
26035;DHT22;13809;48.632;11.576;2023-06-22T23:47:06;23.70;39.80
26035;DHT22;13809;48.632;11.576;2023-06-22T23:52:11;23.60;39.70
26035;DHT22;13809;48.632;11.576;2023-06-22T23:57:14;23.50;40.90
